sensor_id;sensor_type;location;lat;lon;timestamp;pressure;altitude;pressure_sealevel;temperature
70123;BMP280;57489;37.404;24.920;2022-09-09T00:00:37;100433.91;;;26.81
70123;BMP280;57489;37.404;24.920;2022-09-09T00:05:45;100433.03;;;26.73
70123;BMP280;57489;37.404;24.920;2022-09-09T00:10:58;100430.00;;;26.78
70123;BMP280;57489;37.404;24.920;2022-09-09T00:16:12;100428.44;;;26.73
70123;BMP280;57489;37.404;24.920;2022-09-09T00:21:16;100424.50;;;26.67
70123;BMP280;57489;37.404;24.920;2022-09-09T00:26:26;100411.91;;;26.75
70123;BMP280;57489;37.404;24.920;2022-09-09T00:31:29;100406.78;;;26.66
70123;BMP280;57489;37.404;24.920;2022-09-09T00:36:32;100406.88;;;26.73
70123;BMP280;57489;37.404;24.920;2022-09-09T00:41:56;100393.72;;;26.68
70123;BMP280;57489;37.404;24.920;2022-09-09T00:52:37;100409.03;;;26.64
70123;BMP280;57489;37.404;24.920;2022-09-09T00:57:39;100412.16;;;26.66
70123;BMP280;57489;37.404;24.920;2022-09-09T01:08:20;100410.59;;;26.65
70123;BMP280;57489;37.404;24.920;2022-09-09T01:13:29;100394.03;;;26.63
70123;BMP280;57489;37.404;24.920;2022-09-09T01:18:36;100379.75;;;26.59
70123;BMP280;57489;37.404;24.920;2022-09-09T01:28:48;100385.00;;;26.52
70123;BMP280;57489;37.404;24.920;2022-09-09T01:33:50;100388.09;;;26.51
70123;BMP280;57489;37.404;24.920;2022-09-09T01:38:50;100394.66;;;26.53
70123;BMP280;57489;37.404;24.920;2022-09-09T01:43:53;100398.88;;;26.51
70123;BMP280;57489;37.404;24.920;2022-09-09T01:48:56;100393.47;;;26.51
70123;BMP280;57489;37.404;24.920;2022-09-09T01:53:57;100386.13;;;26.47
70123;BMP280;57489;37.404;24.920;2022-09-09T01:59:16;100389.59;;;26.25
70123;BMP280;57489;37.404;24.920;2022-09-09T02:09:29;100388.16;;;25.85
70123;BMP280;57489;37.404;24.920;2022-09-09T02:14:35;100389.56;;;25.79
70123;BMP280;57489;37.404;24.920;2022-09-09T02:19:47;100384.09;;;25.95
70123;BMP280;57489;37.404;24.920;2022-09-09T02:24:50;100382.44;;;25.87
70123;BMP280;57489;37.404;24.920;2022-09-09T02:29:53;100373.47;;;26.02
70123;BMP280;57489;37.404;24.920;2022-09-09T02:35:02;100381.31;;;25.91
70123;BMP280;57489;37.404;24.920;2022-09-09T02:40:05;100392.47;;;25.90
70123;BMP280;57489;37.404;24.920;2022-09-09T02:45:08;100388.47;;;26.03
70123;BMP280;57489;37.404;24.920;2022-09-09T02:55:41;100371.31;;;26.11
70123;BMP280;57489;37.404;24.920;2022-09-09T03:00:45;100369.28;;;26.28
70123;BMP280;57489;37.404;24.920;2022-09-09T03:05:47;100372.38;;;26.30
70123;BMP280;57489;37.404;24.920;2022-09-09T03:10:47;100367.72;;;26.27
70123;BMP280;57489;37.404;24.920;2022-09-09T03:15:48;100358.50;;;26.28
70123;BMP280;57489;37.404;24.920;2022-09-09T03:20:48;100356.97;;;26.27
70123;BMP280;57489;37.404;24.920;2022-09-09T03:25:49;100360.66;;;26.18
70123;BMP280;57489;37.404;24.920;2022-09-09T03:30:50;100366.75;;;26.15
70123;BMP280;57489;37.404;24.920;2022-09-09T03:35:50;100361.47;;;25.77
70123;BMP280;57489;37.404;24.920;2022-09-09T03:40:52;100364.31;;;25.64
70123;BMP280;57489;37.404;24.920;2022-09-09T03:45:53;100352.03;;;25.63
70123;BMP280;57489;37.404;24.920;2022-09-09T03:50:54;100358.41;;;25.55
70123;BMP280;57489;37.404;24.920;2022-09-09T03:55:56;100358.00;;;25.53
70123;BMP280;57489;37.404;24.920;2022-09-09T04:01:01;100364.53;;;25.75
70123;BMP280;57489;37.404;24.920;2022-09-09T04:06:04;100383.94;;;25.84
70123;BMP280;57489;37.404;24.920;2022-09-09T04:11:05;100380.00;;;25.82
70123;BMP280;57489;37.404;24.920;2022-09-09T04:16:06;100363.50;;;25.60
70123;BMP280;57489;37.404;24.920;2022-09-09T04:21:08;100368.88;;;25.60
70123;BMP280;57489;37.404;24.920;2022-09-09T04:26:09;100376.38;;;25.51
70123;BMP280;57489;37.404;24.920;2022-09-09T04:31:15;100371.72;;;25.48
70123;BMP280;57489;37.404;24.920;2022-09-09T04:36:16;100388.13;;;25.62
70123;BMP280;57489;37.404;24.920;2022-09-09T04:41:17;100381.16;;;25.81
70123;BMP280;57489;37.404;24.920;2022-09-09T04:46:18;100381.97;;;26.04
70123;BMP280;57489;37.404;24.920;2022-09-09T04:51:18;100380.50;;;26.10
70123;BMP280;57489;37.404;24.920;2022-09-09T04:56:19;100392.13;;;26.14
70123;BMP280;57489;37.404;24.920;2022-09-09T05:01:21;100383.38;;;26.44
70123;BMP280;57489;37.404;24.920;2022-09-09T05:06:22;100394.97;;;26.48
70123;BMP280;57489;37.404;24.920;2022-09-09T05:11:25;100385.06;;;26.56
70123;BMP280;57489;37.404;24.920;2022-09-09T05:16:25;100400.34;;;26.48
70123;BMP280;57489;37.404;24.920;2022-09-09T05:21:26;100394.97;;;26.74
70123;BMP280;57489;37.404;24.920;2022-09-09T05:26:26;100399.00;;;26.61
70123;BMP280;57489;37.404;24.920;2022-09-09T05:31:29;100404.59;;;26.75
70123;BMP280;57489;37.404;24.920;2022-09-09T05:36:30;100406.97;;;26.81
70123;BMP280;57489;37.404;24.920;2022-09-09T05:41:31;100405.56;;;26.87
70123;BMP280;57489;37.404;24.920;2022-09-09T05:46:31;100404.56;;;26.98
70123;BMP280;57489;37.404;24.920;2022-09-09T05:51:32;100406.59;;;27.09
70123;BMP280;57489;37.404;24.920;2022-09-09T05:56:32;100406.63;;;27.12
70123;BMP280;57489;37.404;24.920;2022-09-09T06:01:35;100409.44;;;27.19
70123;BMP280;57489;37.404;24.920;2022-09-09T06:06:37;100419.47;;;27.22
70123;BMP280;57489;37.404;24.920;2022-09-09T06:11:39;100421.53;;;27.32
70123;BMP280;57489;37.404;24.920;2022-09-09T06:16:39;100421.63;;;27.40
70123;BMP280;57489;37.404;24.920;2022-09-09T06:21:40;100434.09;;;27.55
70123;BMP280;57489;37.404;24.920;2022-09-09T06:26:40;100423.97;;;27.78
70123;BMP280;57489;37.404;24.920;2022-09-09T06:31:42;100425.66;;;27.93
70123;BMP280;57489;37.404;24.920;2022-09-09T06:36:42;100424.97;;;28.04
70123;BMP280;57489;37.404;24.920;2022-09-09T06:41:43;100419.63;;;28.11
70123;BMP280;57489;37.404;24.920;2022-09-09T06:46:43;100437.00;;;28.17
70123;BMP280;57489;37.404;24.920;2022-09-09T06:51:44;100437.47;;;28.22
70123;BMP280;57489;37.404;24.920;2022-09-09T06:56:44;100443.28;;;28.28
70123;BMP280;57489;37.404;24.920;2022-09-09T07:01:45;100459.84;;;28.27
70123;BMP280;57489;37.404;24.920;2022-09-09T07:06:46;100469.19;;;28.36
70123;BMP280;57489;37.404;24.920;2022-09-09T07:11:49;100485.78;;;28.35
70123;BMP280;57489;37.404;24.920;2022-09-09T07:16:49;100485.81;;;28.42
70123;BMP280;57489;37.404;24.920;2022-09-09T07:21:50;100488.53;;;28.45
70123;BMP280;57489;37.404;24.920;2022-09-09T07:26:50;100489.75;;;28.51
70123;BMP280;57489;37.404;24.920;2022-09-09T07:31:51;100497.09;;;28.55
70123;BMP280;57489;37.404;24.920;2022-09-09T07:36:51;100499.03;;;28.54
70123;BMP280;57489;37.404;24.920;2022-09-09T07:41:52;100507.56;;;28.56
70123;BMP280;57489;37.404;24.920;2022-09-09T07:46:52;100501.34;;;28.52
70123;BMP280;57489;37.404;24.920;2022-09-09T07:51:53;100499.81;;;28.55
70123;BMP280;57489;37.404;24.920;2022-09-09T07:56:53;100493.66;;;28.58
70123;BMP280;57489;37.404;24.920;2022-09-09T08:01:54;100487.84;;;28.56
70123;BMP280;57489;37.404;24.920;2022-09-09T08:06:57;100500.25;;;28.57
70123;BMP280;57489;37.404;24.920;2022-09-09T08:11:58;100484.44;;;28.62
70123;BMP280;57489;37.404;24.920;2022-09-09T08:16:58;100496.41;;;28.65
70123;BMP280;57489;37.404;24.920;2022-09-09T08:21:59;100495.66;;;28.68
70123;BMP280;57489;37.404;24.920;2022-09-09T08:26:59;100494.19;;;28.74
70123;BMP280;57489;37.404;24.920;2022-09-09T08:32:00;100491.09;;;28.75
70123;BMP280;57489;37.404;24.920;2022-09-09T08:37:00;100498.09;;;28.80
70123;BMP280;57489;37.404;24.920;2022-09-09T08:58:16;100519.31;;;28.78
70123;BMP280;57489;37.404;24.920;2022-09-09T09:14:11;100493.88;;;28.86
70123;BMP280;57489;37.404;24.920;2022-09-09T09:19:15;100499.28;;;28.86
70123;BMP280;57489;37.404;24.920;2022-09-09T09:24:23;100491.56;;;28.88
70123;BMP280;57489;37.404;24.920;2022-09-09T09:29:26;100495.44;;;28.91
70123;BMP280;57489;37.404;24.920;2022-09-09T09:34:27;100492.38;;;28.92
70123;BMP280;57489;37.404;24.920;2022-09-09T09:39:30;100479.22;;;28.91
70123;BMP280;57489;37.404;24.920;2022-09-09T09:44:32;100482.31;;;28.89
70123;BMP280;57489;37.404;24.920;2022-09-09T09:49:32;100481.56;;;28.92
70123;BMP280;57489;37.404;24.920;2022-09-09T09:54:37;100463.19;;;29.23
70123;BMP280;57489;37.404;24.920;2022-09-09T09:59:39;100460.13;;;29.35
70123;BMP280;57489;37.404;24.920;2022-09-09T10:04:39;100457.03;;;29.36
70123;BMP280;57489;37.404;24.920;2022-09-09T10:09:40;100450.16;;;29.60
70123;BMP280;57489;37.404;24.920;2022-09-09T10:25:52;100443.97;;;29.74
70123;BMP280;57489;37.404;24.920;2022-09-09T10:36:26;100452.50;;;30.08
70123;BMP280;57489;37.404;24.920;2022-09-09T10:47:38;100458.56;;;30.90
70123;BMP280;57489;37.404;24.920;2022-09-09T10:58:12;100450.41;;;31.01
70123;BMP280;57489;37.404;24.920;2022-09-09T11:03:26;100441.09;;;31.06
70123;BMP280;57489;37.404;24.920;2022-09-09T11:08:30;100446.78;;;31.22
70123;BMP280;57489;37.404;24.920;2022-09-09T11:40:23;100452.19;;;31.29
70123;BMP280;57489;37.404;24.920;2022-09-09T11:45:26;100451.47;;;31.21
70123;BMP280;57489;37.404;24.920;2022-09-09T11:50:31;100439.78;;;31.35
70123;BMP280;57489;37.404;24.920;2022-09-09T11:55:34;100437.38;;;31.51
70123;BMP280;57489;37.404;24.920;2022-09-09T12:05:44;100423.34;;;31.57
70123;BMP280;57489;37.404;24.920;2022-09-09T12:10:54;100421.06;;;31.51
70123;BMP280;57489;37.404;24.920;2022-09-09T12:15:59;100428.72;;;31.64
70123;BMP280;57489;37.404;24.920;2022-09-09T12:21:21;100422.56;;;31.60
70123;BMP280;57489;37.404;24.920;2022-09-09T12:26:35;100420.13;;;31.76
70123;BMP280;57489;37.404;24.920;2022-09-09T12:36:53;100409.84;;;31.49
70123;BMP280;57489;37.404;24.920;2022-09-09T12:41:55;100408.09;;;31.14
70123;BMP280;57489;37.404;24.920;2022-09-09T12:46:59;100409.88;;;31.42
70123;BMP280;57489;37.404;24.920;2022-09-09T12:52:08;100394.22;;;31.64
70123;BMP280;57489;37.404;24.920;2022-09-09T12:57:12;100400.03;;;31.04
70123;BMP280;57489;37.404;24.920;2022-09-09T13:02:22;100401.19;;;31.06
70123;BMP280;57489;37.404;24.920;2022-09-09T13:07:23;100393.47;;;30.98
70123;BMP280;57489;37.404;24.920;2022-09-09T13:12:23;100390.41;;;30.96
70123;BMP280;57489;37.404;24.920;2022-09-09T13:17:26;100385.28;;;31.67
70123;BMP280;57489;37.404;24.920;2022-09-09T13:22:37;100382.47;;;31.78
70123;BMP280;57489;37.404;24.920;2022-09-09T13:27:51;100380.03;;;31.42
70123;BMP280;57489;37.404;24.920;2022-09-09T13:38:09;100380.94;;;31.77
70123;BMP280;57489;37.404;24.920;2022-09-09T13:43:17;100380.59;;;31.71
70123;BMP280;57489;37.404;24.920;2022-09-09T13:48:20;100367.84;;;31.68
70123;BMP280;57489;37.404;24.920;2022-09-09T13:53:20;100366.59;;;31.73
70123;BMP280;57489;37.404;24.920;2022-09-09T13:58:21;100362.16;;;31.52
70123;BMP280;57489;37.404;24.920;2022-09-09T14:03:21;100361.31;;;31.59
70123;BMP280;57489;37.404;24.920;2022-09-09T14:08:24;100364.88;;;31.52
70123;BMP280;57489;37.404;24.920;2022-09-09T14:13:25;100359.13;;;31.39
70123;BMP280;57489;37.404;24.920;2022-09-09T14:18:26;100363.59;;;31.64
70123;BMP280;57489;37.404;24.920;2022-09-09T14:23:26;100360.63;;;31.47
70123;BMP280;57489;37.404;24.920;2022-09-09T14:28:27;100356.44;;;31.39
70123;BMP280;57489;37.404;24.920;2022-09-09T14:33:27;100346.00;;;31.31
70123;BMP280;57489;37.404;24.920;2022-09-09T14:38:33;100349.25;;;31.15
70123;BMP280;57489;37.404;24.920;2022-09-09T14:43:34;100356.22;;;31.12
70123;BMP280;57489;37.404;24.920;2022-09-09T14:48:35;100343.00;;;31.21
70123;BMP280;57489;37.404;24.920;2022-09-09T14:53:36;100349.25;;;31.11
70123;BMP280;57489;37.404;24.920;2022-09-09T14:58:37;100353.22;;;30.96
70123;BMP280;57489;37.404;24.920;2022-09-09T15:03:38;100344.66;;;31.01
70123;BMP280;57489;37.404;24.920;2022-09-09T15:08:41;100339.31;;;30.90
70123;BMP280;57489;37.404;24.920;2022-09-09T15:13:43;100349.03;;;30.84
70123;BMP280;57489;37.404;24.920;2022-09-09T15:18:45;100350.25;;;30.76
70123;BMP280;57489;37.404;24.920;2022-09-09T15:23:46;100350.25;;;30.69
70123;BMP280;57489;37.404;24.920;2022-09-09T15:28:46;100351.84;;;30.56
70123;BMP280;57489;37.404;24.920;2022-09-09T15:33:52;100348.78;;;30.47
70123;BMP280;57489;37.404;24.920;2022-09-09T15:38:53;100353.47;;;30.25
70123;BMP280;57489;37.404;24.920;2022-09-09T15:43:55;100351.19;;;30.16
70123;BMP280;57489;37.404;24.920;2022-09-09T15:54:07;100351.25;;;29.84
70123;BMP280;57489;37.404;24.920;2022-09-09T15:59:07;100355.09;;;29.69
70123;BMP280;57489;37.404;24.920;2022-09-09T16:04:08;100348.91;;;29.54
70123;BMP280;57489;37.404;24.920;2022-09-09T16:09:09;100348.88;;;29.47
70123;BMP280;57489;37.404;24.920;2022-09-09T16:14:09;100338.84;;;29.44
70123;BMP280;57489;37.404;24.920;2022-09-09T16:19:12;100345.41;;;29.36
70123;BMP280;57489;37.404;24.920;2022-09-09T16:24:15;100335.75;;;29.31
70123;BMP280;57489;37.404;24.920;2022-09-09T16:29:18;100331.88;;;29.22
70123;BMP280;57489;37.404;24.920;2022-09-09T16:34:19;100330.28;;;29.14
70123;BMP280;57489;37.404;24.920;2022-09-09T16:39:20;100338.75;;;29.08
70123;BMP280;57489;37.404;24.920;2022-09-09T16:44:21;100332.19;;;29.02
70123;BMP280;57489;37.404;24.920;2022-09-09T16:49:21;100337.94;;;28.83
70123;BMP280;57489;37.404;24.920;2022-09-09T16:54:21;100338.31;;;28.78
70123;BMP280;57489;37.404;24.920;2022-09-09T16:59:22;100332.47;;;28.76
70123;BMP280;57489;37.404;24.920;2022-09-09T17:04:26;100332.03;;;28.67
70123;BMP280;57489;37.404;24.920;2022-09-09T17:09:26;100332.03;;;28.67
70123;BMP280;57489;37.404;24.920;2022-09-09T17:14:27;100339.38;;;28.66
70123;BMP280;57489;37.404;24.920;2022-09-09T17:19:27;100342.41;;;28.50
70123;BMP280;57489;37.404;24.920;2022-09-09T17:24:28;100345.41;;;28.38
70123;BMP280;57489;37.404;24.920;2022-09-09T17:29:29;100348.41;;;28.22
70123;BMP280;57489;37.404;24.920;2022-09-09T17:34:29;100353.03;;;28.22
70123;BMP280;57489;37.404;24.920;2022-09-09T17:39:30;100360.38;;;28.25
70123;BMP280;57489;37.404;24.920;2022-09-09T17:44:30;100358.31;;;28.08
70123;BMP280;57489;37.404;24.920;2022-09-09T17:49:30;100365.19;;;28.02
70123;BMP280;57489;37.404;24.920;2022-09-09T17:54:31;100364.34;;;27.90
70123;BMP280;57489;37.404;24.920;2022-09-09T17:59:31;100367.38;;;27.85
70123;BMP280;57489;37.404;24.920;2022-09-09T18:04:33;100384.97;;;27.72
70123;BMP280;57489;37.404;24.920;2022-09-09T18:09:33;100385.06;;;27.79
70123;BMP280;57489;37.404;24.920;2022-09-09T18:14:34;100387.53;;;27.99
70123;BMP280;57489;37.404;24.920;2022-09-09T18:19:34;100388.72;;;28.01
70123;BMP280;57489;37.404;24.920;2022-09-09T18:24:35;100404.63;;;28.17
70123;BMP280;57489;37.404;24.920;2022-09-09T18:29:35;100402.44;;;28.33
70123;BMP280;57489;37.404;24.920;2022-09-09T18:34:36;100407.50;;;28.38
70123;BMP280;57489;37.404;24.920;2022-09-09T18:39:36;100414.22;;;28.62
70123;BMP280;57489;37.404;24.920;2022-09-09T18:44:37;100414.22;;;28.62
70123;BMP280;57489;37.404;24.920;2022-09-09T18:49:37;100419.88;;;28.43
70123;BMP280;57489;37.404;24.920;2022-09-09T18:54:37;100422.56;;;28.39
70123;BMP280;57489;37.404;24.920;2022-09-09T18:59:38;100423.41;;;28.47
70123;BMP280;57489;37.404;24.920;2022-09-09T19:04:38;100421.09;;;28.52
70123;BMP280;57489;37.404;24.920;2022-09-09T19:09:39;100421.03;;;28.45
70123;BMP280;57489;37.404;24.920;2022-09-09T19:14:39;100418.69;;;28.40
70123;BMP280;57489;37.404;24.920;2022-09-09T19:19:40;100411.72;;;28.36
70123;BMP280;57489;37.404;24.920;2022-09-09T19:24:40;100413.66;;;28.35
70123;BMP280;57489;37.404;24.920;2022-09-09T19:29:41;100413.97;;;28.23
70123;BMP280;57489;37.404;24.920;2022-09-09T19:34:41;100408.97;;;28.25
70123;BMP280;57489;37.404;24.920;2022-09-09T19:39:42;100403.31;;;28.44
70123;BMP280;57489;37.404;24.920;2022-09-09T19:44:42;100400.22;;;28.46
70123;BMP280;57489;37.404;24.920;2022-09-09T19:49:43;100392.56;;;28.51
70123;BMP280;57489;37.404;24.920;2022-09-09T19:54:44;100398.69;;;28.41
70123;BMP280;57489;37.404;24.920;2022-09-09T19:59:45;100388.19;;;28.36
70123;BMP280;57489;37.404;24.920;2022-09-09T20:04:45;100387.81;;;28.34
70123;BMP280;57489;37.404;24.920;2022-09-09T20:09:46;100380.94;;;28.44
70123;BMP280;57489;37.404;24.920;2022-09-09T20:14:46;100380.81;;;28.26
70123;BMP280;57489;37.404;24.920;2022-09-09T20:19:47;100390.06;;;28.29
70123;BMP280;57489;37.404;24.920;2022-09-09T20:24:47;100368.50;;;28.29
70123;BMP280;57489;37.404;24.920;2022-09-09T20:29:48;100367.69;;;28.25
70123;BMP280;57489;37.404;24.920;2022-09-09T20:34:48;100376.91;;;28.20
70123;BMP280;57489;37.404;24.920;2022-09-09T20:39:49;100377.69;;;28.20
70123;BMP280;57489;37.404;24.920;2022-09-09T20:44:49;100379.13;;;28.11
70123;BMP280;57489;37.404;24.920;2022-09-09T20:49:49;100381.44;;;28.09
70123;BMP280;57489;37.404;24.920;2022-09-09T20:54:50;100382.25;;;28.13
70123;BMP280;57489;37.404;24.920;2022-09-09T20:59:50;100377.97;;;28.08
70123;BMP280;57489;37.404;24.920;2022-09-09T21:04:51;100369.88;;;28.12
70123;BMP280;57489;37.404;24.920;2022-09-09T21:09:51;100381.03;;;28.07
70123;BMP280;57489;37.404;24.920;2022-09-09T21:14:52;100372.25;;;28.13
70123;BMP280;57489;37.404;24.920;2022-09-09T21:19:52;100367.16;;;28.08
70123;BMP280;57489;37.404;24.920;2022-09-09T21:24:53;100369.09;;;28.08
70123;BMP280;57489;37.404;24.920;2022-09-09T21:29:53;100373.34;;;28.09
70123;BMP280;57489;37.404;24.920;2022-09-09T21:34:53;100365.25;;;28.09
70123;BMP280;57489;37.404;24.920;2022-09-09T21:39:54;100369.47;;;28.03
70123;BMP280;57489;37.404;24.920;2022-09-09T21:44:55;100364.50;;;28.12
70123;BMP280;57489;37.404;24.920;2022-09-09T21:49:55;100366.81;;;28.10
70123;BMP280;57489;37.404;24.920;2022-09-09T21:54:56;100364.63;;;28.26
70123;BMP280;57489;37.404;24.920;2022-09-09T21:59:56;100357.66;;;28.25
70123;BMP280;57489;37.404;24.920;2022-09-09T22:04:57;100353.84;;;28.30
70123;BMP280;57489;37.404;24.920;2022-09-09T22:09:57;100356.38;;;28.08
70123;BMP280;57489;37.404;24.920;2022-09-09T22:14:58;100353.63;;;28.05
70123;BMP280;57489;37.404;24.920;2022-09-09T22:19:58;100351.28;;;27.96
70123;BMP280;57489;37.404;24.920;2022-09-09T22:24:59;100346.66;;;27.97
70123;BMP280;57489;37.404;24.920;2022-09-09T22:29:59;100346.66;;;27.97
70123;BMP280;57489;37.404;24.920;2022-09-09T22:35:00;100345.47;;;27.90
70123;BMP280;57489;37.404;24.920;2022-09-09T22:40:01;100333.44;;;27.84
70123;BMP280;57489;37.404;24.920;2022-09-09T22:45:01;100331.16;;;27.86
70123;BMP280;57489;37.404;24.920;2022-09-09T22:50:02;100324.19;;;27.78
70123;BMP280;57489;37.404;24.920;2022-09-09T22:55:03;100324.22;;;27.85
70123;BMP280;57489;37.404;24.920;2022-09-09T23:00:04;100318.84;;;27.89
70123;BMP280;57489;37.404;24.920;2022-09-09T23:05:05;100311.94;;;27.91
70123;BMP280;57489;37.404;24.920;2022-09-09T23:10:06;100313.41;;;27.85
70123;BMP280;57489;37.404;24.920;2022-09-09T23:15:07;100313.81;;;27.87
70123;BMP280;57489;37.404;24.920;2022-09-09T23:20:08;99879.16;;;27.85
70123;BMP280;57489;37.404;24.920;2022-09-09T23:25:09;100309.94;;;27.85
70123;BMP280;57489;37.404;24.920;2022-09-09T23:30:10;100305.72;;;27.87
70123;BMP280;57489;37.404;24.920;2022-09-09T23:35:10;100305.59;;;27.73
70123;BMP280;57489;37.404;24.920;2022-09-09T23:40:11;100307.16;;;27.74
70123;BMP280;57489;37.404;24.920;2022-09-09T23:45:11;100302.53;;;27.71
70123;BMP280;57489;37.404;24.920;2022-09-09T23:50:12;100295.91;;;27.65
70123;BMP280;57489;37.404;24.920;2022-09-09T23:55:12;100295.91;;;27.65
